sensor_id;sensor_type;location;lat;lon;timestamp;pressure;altitude;pressure_sealevel;temperature;humidity
73981;BME280;62348;51.412;5.436;2022-12-07T00:01:40;101695.16;;;3.91;94.40
73981;BME280;62348;51.412;5.436;2022-12-07T00:04:07;101702.34;;;3.90;94.15
73981;BME280;62348;51.412;5.436;2022-12-07T00:06:46;101704.84;;;3.92;94.40
73981;BME280;62348;51.412;5.436;2022-12-07T00:09:16;101704.19;;;3.90;94.07
73981;BME280;62348;51.412;5.436;2022-12-07T00:11:43;101709.56;;;3.90;93.75
73981;BME280;62348;51.412;5.436;2022-12-07T00:14:14;101695.94;;;3.85;93.73
73981;BME280;62348;51.412;5.436;2022-12-07T00:16:40;101692.00;;;3.81;93.83
73981;BME280;62348;51.412;5.436;2022-12-07T00:19:06;101685.81;;;3.80;93.73
73981;BME280;62348;51.412;5.436;2022-12-07T00:21:34;101690.72;;;3.77;93.61
73981;BME280;62348;51.412;5.436;2022-12-07T00:24:01;101695.44;;;3.75;93.66
73981;BME280;62348;51.412;5.436;2022-12-07T00:26:29;101687.63;;;3.73;93.44
73981;BME280;62348;51.412;5.436;2022-12-07T00:28:57;101688.03;;;3.70;93.42
73981;BME280;62348;51.412;5.436;2022-12-07T00:31:28;101691.25;;;3.65;93.42
73981;BME280;62348;51.412;5.436;2022-12-07T00:33:55;101680.94;;;3.62;93.21
73981;BME280;62348;51.412;5.436;2022-12-07T00:36:23;101676.44;;;3.63;93.17
73981;BME280;62348;51.412;5.436;2022-12-07T00:38:49;101675.38;;;3.57;93.18
73981;BME280;62348;51.412;5.436;2022-12-07T00:41:19;101679.69;;;3.58;93.39
73981;BME280;62348;51.412;5.436;2022-12-07T00:43:46;101678.22;;;3.56;93.23
73981;BME280;62348;51.412;5.436;2022-12-07T00:46:13;101675.75;;;3.54;93.68
73981;BME280;62348;51.412;5.436;2022-12-07T00:48:39;101679.00;;;3.49;93.08
73981;BME280;62348;51.412;5.436;2022-12-07T00:51:05;101672.19;;;3.47;93.49
73981;BME280;62348;51.412;5.436;2022-12-07T00:53:31;101669.72;;;3.45;93.54
73981;BME280;62348;51.412;5.436;2022-12-07T00:56:04;101669.72;;;3.45;93.81
73981;BME280;62348;51.412;5.436;2022-12-07T00:58:30;101663.53;;;3.45;93.69
73981;BME280;62348;51.412;5.436;2022-12-07T01:00:59;101661.25;;;3.42;93.81
73981;BME280;62348;51.412;5.436;2022-12-07T01:03:25;101663.09;;;3.41;93.67
73981;BME280;62348;51.412;5.436;2022-12-07T01:05:52;101665.75;;;3.41;94.07
73981;BME280;62348;51.412;5.436;2022-12-07T01:08:18;101659.59;;;3.41;93.71
73981;BME280;62348;51.412;5.436;2022-12-07T01:10:44;101667.81;;;3.39;94.21
73981;BME280;62348;51.412;5.436;2022-12-07T01:13:09;101674.38;;;3.37;93.96
73981;BME280;62348;51.412;5.436;2022-12-07T01:15:39;101662.84;;;3.36;93.93
73981;BME280;62348;51.412;5.436;2022-12-07T01:18:05;101665.72;;;3.35;93.71
73981;BME280;62348;51.412;5.436;2022-12-07T01:20:30;101668.41;;;3.35;93.93
73981;BME280;62348;51.412;5.436;2022-12-07T01:22:55;101663.41;;;3.31;93.62
73981;BME280;62348;51.412;5.436;2022-12-07T01:25:21;101663.41;;;3.31;93.85
73981;BME280;62348;51.412;5.436;2022-12-07T01:27:46;101668.13;;;3.29;93.78
73981;BME280;62348;51.412;5.436;2022-12-07T01:30:12;101674.53;;;3.28;93.61
73981;BME280;62348;51.412;5.436;2022-12-07T01:32:37;101674.06;;;3.25;93.36
73981;BME280;62348;51.412;5.436;2022-12-07T01:35:03;101676.09;;;3.23;93.16
73981;BME280;62348;51.412;5.436;2022-12-07T01:37:34;101673.44;;;3.23;93.53
73981;BME280;62348;51.412;5.436;2022-12-07T01:39:59;101671.94;;;3.20;93.68
73981;BME280;62348;51.412;5.436;2022-12-07T01:42:25;101665.78;;;3.20;93.71
73981;BME280;62348;51.412;5.436;2022-12-07T01:47:47;101676.47;;;3.20;93.98
73981;BME280;62348;51.412;5.436;2022-12-07T01:50:19;101674.81;;;3.19;93.95
73981;BME280;62348;51.412;5.436;2022-12-07T01:52:48;101677.31;;;3.20;94.37
73981;BME280;62348;51.412;5.436;2022-12-07T01:55:16;101670.75;;;3.23;94.18
73981;BME280;62348;51.412;5.436;2022-12-07T01:57:45;101670.53;;;3.24;94.33
73981;BME280;62348;51.412;5.436;2022-12-07T02:00:12;101669.72;;;3.24;94.50
73981;BME280;62348;51.412;5.436;2022-12-07T02:02:44;101672.03;;;3.27;94.58
73981;BME280;62348;51.412;5.436;2022-12-07T02:05:12;101677.38;;;3.27;94.82
73981;BME280;62348;51.412;5.436;2022-12-07T02:07:38;101671.22;;;3.26;94.74
73981;BME280;62348;51.412;5.436;2022-12-07T02:10:22;101674.53;;;3.28;94.96
73981;BME280;62348;51.412;5.436;2022-12-07T02:13:02;101664.63;;;3.29;95.05
73981;BME280;62348;51.412;5.436;2022-12-07T02:15:59;101660.94;;;3.30;95.12
73981;BME280;62348;51.412;5.436;2022-12-07T02:24:03;101660.56;;;3.33;95.10
73981;BME280;62348;51.412;5.436;2022-12-07T02:26:45;101653.16;;;3.35;94.92
73981;BME280;62348;51.412;5.436;2022-12-07T02:29:25;101667.34;;;3.36;94.80
73981;BME280;62348;51.412;5.436;2022-12-07T02:32:04;101658.34;;;3.37;95.25
73981;BME280;62348;51.412;5.436;2022-12-07T02:34:48;101659.97;;;3.38;95.26
73981;BME280;62348;51.412;5.436;2022-12-07T02:37:25;101663.88;;;3.35;94.77
73981;BME280;62348;51.412;5.436;2022-12-07T02:42:37;101659.97;;;3.38;94.98
73981;BME280;62348;51.412;5.436;2022-12-07T02:45:05;101664.69;;;3.36;94.75
73981;BME280;62348;51.412;5.436;2022-12-07T02:47:32;101655.84;;;3.35;94.74
73981;BME280;62348;51.412;5.436;2022-12-07T02:49:59;101658.72;;;3.33;94.81
73981;BME280;62348;51.412;5.436;2022-12-07T02:52:27;101651.72;;;3.32;94.33
73981;BME280;62348;51.412;5.436;2022-12-07T02:54:52;101652.09;;;3.29;94.34
73981;BME280;62348;51.412;5.436;2022-12-07T02:57:30;101657.06;;;3.32;94.43
73981;BME280;62348;51.412;5.436;2022-12-07T03:00:13;101651.91;;;3.31;94.32
73981;BME280;62348;51.412;5.436;2022-12-07T03:05:25;101654.78;;;3.29;94.53
73981;BME280;62348;51.412;5.436;2022-12-07T03:08:01;101665.88;;;3.26;94.06
73981;BME280;62348;51.412;5.436;2022-12-07T03:10:35;101662.34;;;3.26;94.30
73981;BME280;62348;51.412;5.436;2022-12-07T03:15:32;101663.19;;;3.26;94.54
73981;BME280;62348;51.412;5.436;2022-12-07T03:18:01;101656.19;;;3.25;94.54
73981;BME280;62348;51.412;5.436;2022-12-07T03:20:29;101661.53;;;3.25;94.24
73981;BME280;62348;51.412;5.436;2022-12-07T03:22:56;101663.56;;;3.23;94.03
73981;BME280;62348;51.412;5.436;2022-12-07T03:25:23;101660.06;;;3.23;94.57
73981;BME280;62348;51.412;5.436;2022-12-07T03:27:54;101670.31;;;3.19;94.22
73981;BME280;62348;51.412;5.436;2022-12-07T03:30:25;101669.28;;;3.20;94.35
73981;BME280;62348;51.412;5.436;2022-12-07T03:33:02;101663.31;;;3.18;94.33
73981;BME280;62348;51.412;5.436;2022-12-07T03:36:07;101651.59;;;3.19;94.19
73981;BME280;62348;51.412;5.436;2022-12-07T03:38:41;101646.00;;;3.14;94.23
73981;BME280;62348;51.412;5.436;2022-12-07T03:41:16;101641.69;;;3.13;94.13
73981;BME280;62348;51.412;5.436;2022-12-07T03:43:44;101645.38;;;3.12;94.07
73981;BME280;62348;51.412;5.436;2022-12-07T03:51:43;101642.06;;;3.10;94.13
73981;BME280;62348;51.412;5.436;2022-12-07T03:54:18;101646.78;;;3.08;93.98
73981;BME280;62348;51.412;5.436;2022-12-07T03:56:45;101660.78;;;3.10;94.41
73981;BME280;62348;51.412;5.436;2022-12-07T03:59:12;101659.94;;;3.09;94.47
73981;BME280;62348;51.412;5.436;2022-12-07T04:01:42;101657.06;;;3.11;94.82
73981;BME280;62348;51.412;5.436;2022-12-07T04:04:08;101656.88;;;3.12;94.60
73981;BME280;62348;51.412;5.436;2022-12-07T04:06:33;101650.53;;;3.13;94.80
73981;BME280;62348;51.412;5.436;2022-12-07T04:08:58;101652.78;;;3.17;94.86
73981;BME280;62348;51.412;5.436;2022-12-07T04:11:24;101657.50;;;3.15;94.55
73981;BME280;62348;51.412;5.436;2022-12-07T04:13:49;101652.16;;;3.15;94.86
73981;BME280;62348;51.412;5.436;2022-12-07T04:16:33;101654.84;;;3.15;95.08
73981;BME280;62348;51.412;5.436;2022-12-07T04:18:59;101651.16;;;3.16;94.92
73981;BME280;62348;51.412;5.436;2022-12-07T04:21:24;101652.78;;;3.17;95.09
73981;BME280;62348;51.412;5.436;2022-12-07T04:23:49;101649.31;;;3.16;94.69
73981;BME280;62348;51.412;5.436;2022-12-07T04:26:15;101659.00;;;3.17;95.04
73981;BME280;62348;51.412;5.436;2022-12-07T04:28:40;101652.44;;;3.20;95.28
73981;BME280;62348;51.412;5.436;2022-12-07T04:31:05;101649.56;;;3.21;95.34
73981;BME280;62348;51.412;5.436;2022-12-07T04:33:31;101642.38;;;3.22;95.18
73981;BME280;62348;51.412;5.436;2022-12-07T04:35:56;101645.03;;;3.22;95.12
73981;BME280;62348;51.412;5.436;2022-12-07T04:38:22;101637.84;;;3.22;95.01
73981;BME280;62348;51.412;5.436;2022-12-07T04:40:47;101627.78;;;3.24;95.26
73981;BME280;62348;51.412;5.436;2022-12-07T04:43:12;101627.78;;;3.24;95.07
73981;BME280;62348;51.412;5.436;2022-12-07T04:45:38;101631.31;;;3.25;95.27
73981;BME280;62348;51.412;5.436;2022-12-07T04:48:03;101636.25;;;3.28;95.13
73981;BME280;62348;51.412;5.436;2022-12-07T04:50:29;101634.59;;;3.27;95.29
73981;BME280;62348;51.412;5.436;2022-12-07T04:52:54;101630.72;;;3.29;95.26
73981;BME280;62348;51.412;5.436;2022-12-07T04:55:19;101635.06;;;3.30;95.04
73981;BME280;62348;51.412;5.436;2022-12-07T04:57:45;101641.22;;;3.31;95.33
73981;BME280;62348;51.412;5.436;2022-12-07T05:00:10;101629.53;;;3.32;95.58
73981;BME280;62348;51.412;5.436;2022-12-07T05:02:36;101631.97;;;3.33;95.69
73981;BME280;62348;51.412;5.436;2022-12-07T05:05:01;101635.50;;;3.34;95.85
73981;BME280;62348;51.412;5.436;2022-12-07T05:07:26;101637.94;;;3.36;95.71
73981;BME280;62348;51.412;5.436;2022-12-07T05:09:52;101637.75;;;3.37;95.76
73981;BME280;62348;51.412;5.436;2022-12-07T05:12:17;101635.91;;;3.38;95.63
73981;BME280;62348;51.412;5.436;2022-12-07T05:14:42;101635.91;;;3.38;95.71
73981;BME280;62348;51.412;5.436;2022-12-07T05:17:08;101633.91;;;3.40;95.71
73981;BME280;62348;51.412;5.436;2022-12-07T05:19:33;101628.75;;;3.38;95.47
73981;BME280;62348;51.412;5.436;2022-12-07T05:21:58;101634.72;;;3.40;95.76
73981;BME280;62348;51.412;5.436;2022-12-07T05:24:24;101636.34;;;3.41;95.79
73981;BME280;62348;51.412;5.436;2022-12-07T05:26:49;101630.38;;;3.39;95.55
73981;BME280;62348;51.412;5.436;2022-12-07T05:29:16;101623.19;;;3.40;95.56
73981;BME280;62348;51.412;5.436;2022-12-07T05:31:42;101624.66;;;3.42;95.44
73981;BME280;62348;51.412;5.436;2022-12-07T05:34:08;101614.97;;;3.41;95.64
73981;BME280;62348;51.412;5.436;2022-12-07T05:36:34;101623.63;;;3.43;95.38
73981;BME280;62348;51.412;5.436;2022-12-07T05:39:00;101622.59;;;3.44;95.19
73981;BME280;62348;51.412;5.436;2022-12-07T05:41:25;101623.44;;;3.45;95.54
73981;BME280;62348;51.412;5.436;2022-12-07T05:44:09;101623.63;;;3.43;95.11
73981;BME280;62348;51.412;5.436;2022-12-07T05:46:35;101629.81;;;3.44;94.96
73981;BME280;62348;51.412;5.436;2022-12-07T05:49:01;101626.28;;;3.43;94.84
73981;BME280;62348;51.412;5.436;2022-12-07T05:51:26;101624.66;;;3.42;94.64
73981;BME280;62348;51.412;5.436;2022-12-07T05:53:52;101613.31;;;3.40;94.43
73981;BME280;62348;51.412;5.436;2022-12-07T05:56:17;101615.19;;;3.40;94.36
73981;BME280;62348;51.412;5.436;2022-12-07T05:58:43;101604.88;;;3.37;94.15
73981;BME280;62348;51.412;5.436;2022-12-07T06:01:27;101614.09;;;3.34;93.87
73981;BME280;62348;51.412;5.436;2022-12-07T06:03:52;101607.28;;;3.31;93.73
73981;BME280;62348;51.412;5.436;2022-12-07T06:06:18;101615.13;;;3.33;93.95
73981;BME280;62348;51.412;5.436;2022-12-07T06:08:43;101614.47;;;3.31;94.29
73981;BME280;62348;51.412;5.436;2022-12-07T06:11:08;101618.38;;;3.28;93.98
73981;BME280;62348;51.412;5.436;2022-12-07T06:13:52;101623.09;;;3.26;93.62
73981;BME280;62348;51.412;5.436;2022-12-07T06:16:18;101617.09;;;3.24;93.68
73981;BME280;62348;51.412;5.436;2022-12-07T06:18:43;101624.28;;;3.24;93.99
73981;BME280;62348;51.412;5.436;2022-12-07T06:21:08;101626.53;;;3.20;93.72
73981;BME280;62348;51.412;5.436;2022-12-07T06:23:34;101623.22;;;3.18;93.53
73981;BME280;62348;51.412;5.436;2022-12-07T06:25:59;101625.88;;;3.18;93.87
73981;BME280;62348;51.412;5.436;2022-12-07T06:28:25;101622.59;;;3.16;93.59
73981;BME280;62348;51.412;5.436;2022-12-07T06:31:00;101626.28;;;3.15;93.77
73981;BME280;62348;51.412;5.436;2022-12-07T06:33:27;101619.47;;;3.12;93.59
73981;BME280;62348;51.412;5.436;2022-12-07T06:35:52;101625.00;;;3.11;93.61
73981;BME280;62348;51.412;5.436;2022-12-07T06:38:18;101625.78;;;3.05;93.36
73981;BME280;62348;51.412;5.436;2022-12-07T06:40:43;101622.91;;;3.06;93.75
73981;BME280;62348;51.412;5.436;2022-12-07T06:43:09;101623.28;;;3.03;93.44
73981;BME280;62348;51.412;5.436;2022-12-07T06:45:34;101622.66;;;3.01;93.64
73981;BME280;62348;51.412;5.436;2022-12-07T06:48:00;101622.03;;;2.99;93.63
73981;BME280;62348;51.412;5.436;2022-12-07T06:50:25;101624.88;;;2.98;93.73
73981;BME280;62348;51.412;5.436;2022-12-07T06:52:51;101626.91;;;2.96;94.04
73981;BME280;62348;51.412;5.436;2022-12-07T06:55:17;101628.13;;;2.93;93.77
73981;BME280;62348;51.412;5.436;2022-12-07T06:57:42;101633.28;;;2.95;94.22
73981;BME280;62348;51.412;5.436;2022-12-07T07:00:08;101631.44;;;2.95;94.26
73981;BME280;62348;51.412;5.436;2022-12-07T07:02:34;101629.13;;;2.92;94.19
73981;BME280;62348;51.412;5.436;2022-12-07T07:04:59;101631.63;;;2.93;94.21
73981;BME280;62348;51.412;5.436;2022-12-07T07:07:25;101632.66;;;2.92;94.30
73981;BME280;62348;51.412;5.436;2022-12-07T07:09:50;101622.97;;;2.91;94.42
73981;BME280;62348;51.412;5.436;2022-12-07T07:12:15;101624.81;;;2.91;94.23
73981;BME280;62348;51.412;5.436;2022-12-07T07:14:41;101639.00;;;2.91;94.29
73981;BME280;62348;51.412;5.436;2022-12-07T07:17:08;101633.66;;;2.91;94.43
73981;BME280;62348;51.412;5.436;2022-12-07T07:19:33;101636.50;;;2.90;94.58
73981;BME280;62348;51.412;5.436;2022-12-07T07:21:58;101626.69;;;2.90;94.53
73981;BME280;62348;51.412;5.436;2022-12-07T07:24:24;101625.00;;;2.89;94.45
73981;BME280;62348;51.412;5.436;2022-12-07T07:26:49;101625.00;;;2.89;94.35
73981;BME280;62348;51.412;5.436;2022-12-07T07:29:15;101632.22;;;2.89;94.21
73981;BME280;62348;51.412;5.436;2022-12-07T07:31:40;101631.38;;;2.88;94.29
73981;BME280;62348;51.412;5.436;2022-12-07T07:34:05;101632.41;;;2.87;94.33
73981;BME280;62348;51.412;5.436;2022-12-07T07:36:31;101630.16;;;2.91;94.74
73981;BME280;62348;51.412;5.436;2022-12-07T07:38:56;101630.16;;;2.91;94.09
73981;BME280;62348;51.412;5.436;2022-12-07T07:41:21;101636.50;;;2.90;94.09
73981;BME280;62348;51.412;5.436;2022-12-07T07:43:47;101636.50;;;2.90;93.83
73981;BME280;62348;51.412;5.436;2022-12-07T07:46:12;101635.69;;;2.89;93.69
73981;BME280;62348;51.412;5.436;2022-12-07T07:48:37;101636.91;;;2.87;94.00
73981;BME280;62348;51.412;5.436;2022-12-07T07:51:07;101649.41;;;2.86;93.88
73981;BME280;62348;51.412;5.436;2022-12-07T07:53:35;101645.94;;;2.86;94.19
73981;BME280;62348;51.412;5.436;2022-12-07T07:56:00;101640.22;;;2.89;94.26
73981;BME280;62348;51.412;5.436;2022-12-07T07:58:26;101652.75;;;2.88;94.17
73981;BME280;62348;51.412;5.436;2022-12-07T08:00:52;101648.88;;;2.91;94.24
73981;BME280;62348;51.412;5.436;2022-12-07T08:03:17;101648.69;;;2.92;94.24
73981;BME280;62348;51.412;5.436;2022-12-07T08:05:43;101653.84;;;2.94;94.16
73981;BME280;62348;51.412;5.436;2022-12-07T08:08:08;101648.28;;;2.96;94.34
73981;BME280;62348;51.412;5.436;2022-12-07T08:10:33;101649.94;;;2.97;94.14
73981;BME280;62348;51.412;5.436;2022-12-07T08:13:00;101650.97;;;2.96;94.46
73981;BME280;62348;51.412;5.436;2022-12-07T08:15:46;101655.13;;;2.98;93.98
73981;BME280;62348;51.412;5.436;2022-12-07T08:18:13;101652.44;;;2.98;94.07
73981;BME280;62348;51.412;5.436;2022-12-07T08:20:39;101655.13;;;2.98;94.11
73981;BME280;62348;51.412;5.436;2022-12-07T08:23:06;101656.94;;;2.98;94.12
73981;BME280;62348;51.412;5.436;2022-12-07T08:25:32;101656.94;;;2.98;94.12
73981;BME280;62348;51.412;5.436;2022-12-07T08:28:00;101659.59;;;2.98;94.42
73981;BME280;62348;51.412;5.436;2022-12-07T08:30:27;101657.78;;;2.98;94.22
73981;BME280;62348;51.412;5.436;2022-12-07T08:32:53;101662.09;;;2.99;94.08
73981;BME280;62348;51.412;5.436;2022-12-07T08:35:18;101663.56;;;3.02;94.37
73981;BME280;62348;51.412;5.436;2022-12-07T08:37:44;101678.38;;;3.04;94.34
73981;BME280;62348;51.412;5.436;2022-12-07T08:40:11;101672.00;;;3.05;94.05
73981;BME280;62348;51.412;5.436;2022-12-07T08:42:43;101673.69;;;3.06;94.15
73981;BME280;62348;51.412;5.436;2022-12-07T08:45:12;101670.00;;;3.07;94.08
73981;BME280;62348;51.412;5.436;2022-12-07T08:47:45;101668.16;;;3.08;94.26
73981;BME280;62348;51.412;5.436;2022-12-07T08:50:12;101661.59;;;3.10;93.96
73981;BME280;62348;51.412;5.436;2022-12-07T08:52:40;101667.38;;;3.14;94.48
73981;BME280;62348;51.412;5.436;2022-12-07T08:55:07;101664.34;;;3.17;94.40
73981;BME280;62348;51.412;5.436;2022-12-07T08:57:35;101656.75;;;3.21;94.53
73981;BME280;62348;51.412;5.436;2022-12-07T09:00:02;101658.84;;;3.25;93.84
73981;BME280;62348;51.412;5.436;2022-12-07T09:02:31;101653.31;;;3.27;94.15
73981;BME280;62348;51.412;5.436;2022-12-07T09:04:56;101653.56;;;3.32;94.21
73981;BME280;62348;51.412;5.436;2022-12-07T09:07:22;101665.72;;;3.35;94.13
73981;BME280;62348;51.412;5.436;2022-12-07T09:09:47;101661.00;;;3.37;94.26
73981;BME280;62348;51.412;5.436;2022-12-07T09:12:13;101662.28;;;3.41;94.13
73981;BME280;62348;51.412;5.436;2022-12-07T09:14:38;101664.75;;;3.42;94.08
73981;BME280;62348;51.412;5.436;2022-12-07T09:17:08;101661.72;;;3.45;94.45
73981;BME280;62348;51.412;5.436;2022-12-07T09:19:34;101661.50;;;3.47;94.01
73981;BME280;62348;51.412;5.436;2022-12-07T09:21:59;101657.63;;;3.49;94.54
73981;BME280;62348;51.412;5.436;2022-12-07T09:24:25;101659.88;;;3.52;94.17
73981;BME280;62348;51.412;5.436;2022-12-07T09:26:50;101658.69;;;3.55;94.36
73981;BME280;62348;51.412;5.436;2022-12-07T09:29:15;101655.59;;;3.58;94.60
73981;BME280;62348;51.412;5.436;2022-12-07T09:31:41;101661.81;;;3.59;93.89
73981;BME280;62348;51.412;5.436;2022-12-07T09:34:06;101663.06;;;3.63;94.19
73981;BME280;62348;51.412;5.436;2022-12-07T09:36:32;101664.72;;;3.64;94.07
73981;BME280;62348;51.412;5.436;2022-12-07T09:38:58;101654.44;;;3.67;94.32
73981;BME280;62348;51.412;5.436;2022-12-07T09:41:25;101658.38;;;3.71;94.05
73981;BME280;62348;51.412;5.436;2022-12-07T09:43:53;101659.84;;;3.74;93.84
73981;BME280;62348;51.412;5.436;2022-12-07T09:46:22;101666.66;;;3.77;93.92
73981;BME280;62348;51.412;5.436;2022-12-07T09:48:48;101655.97;;;3.77;93.48
73981;BME280;62348;51.412;5.436;2022-12-07T09:51:22;101658.44;;;3.78;93.43
73981;BME280;62348;51.412;5.436;2022-12-07T09:53:51;101655.97;;;3.77;93.54
73981;BME280;62348;51.412;5.436;2022-12-07T09:56:17;101660.31;;;3.78;93.42
73981;BME280;62348;51.412;5.436;2022-12-07T09:58:44;101659.25;;;3.79;93.16
73981;BME280;62348;51.412;5.436;2022-12-07T10:03:47;101663.81;;;3.85;92.97
73981;BME280;62348;51.412;5.436;2022-12-07T10:06:13;101658.09;;;3.88;93.09
73981;BME280;62348;51.412;5.436;2022-12-07T10:08:39;101652.53;;;3.89;92.88
73981;BME280;62348;51.412;5.436;2022-12-07T10:11:06;101658.09;;;3.88;92.43
73981;BME280;62348;51.412;5.436;2022-12-07T10:13:39;101644.72;;;3.88;92.58
73981;BME280;62348;51.412;5.436;2022-12-07T10:16:07;101644.34;;;3.91;92.73
73981;BME280;62348;51.412;5.436;2022-12-07T10:18:53;101638.19;;;3.97;93.07
73981;BME280;62348;51.412;5.436;2022-12-07T10:21:24;101641.91;;;4.03;92.89
73981;BME280;62348;51.412;5.436;2022-12-07T10:24:14;101634.94;;;4.08;92.88
73981;BME280;62348;51.412;5.436;2022-12-07T10:26:50;101638.44;;;4.09;92.74
73981;BME280;62348;51.412;5.436;2022-12-07T10:29:17;101629.19;;;4.11;92.81
73981;BME280;62348;51.412;5.436;2022-12-07T10:31:44;101625.50;;;4.13;92.69
73981;BME280;62348;51.412;5.436;2022-12-07T10:34:21;101630.03;;;4.19;92.91
73981;BME280;62348;51.412;5.436;2022-12-07T10:36:50;101616.47;;;4.20;92.52
73981;BME280;62348;51.412;5.436;2022-12-07T10:39:20;101619.75;;;4.22;92.40
73981;BME280;62348;51.412;5.436;2022-12-07T10:44:23;101612.34;;;4.24;92.28
73981;BME280;62348;51.412;5.436;2022-12-07T10:50:17;101608.47;;;4.27;92.19
73981;BME280;62348;51.412;5.436;2022-12-07T11:01:33;101599.84;;;4.32;91.96
73981;BME280;62348;51.412;5.436;2022-12-07T11:07:14;101596.75;;;4.35;91.97
73981;BME280;62348;51.412;5.436;2022-12-07T11:10:10;101589.78;;;4.40;92.50
73981;BME280;62348;51.412;5.436;2022-12-07T11:15:20;101575.34;;;4.41;91.88
73981;BME280;62348;51.412;5.436;2022-12-07T11:17:54;101583.63;;;4.46;92.51
73981;BME280;62348;51.412;5.436;2022-12-07T11:28:52;101566.53;;;4.74;92.13
73981;BME280;62348;51.412;5.436;2022-12-07T11:34:18;101552.53;;;4.85;91.76
73981;BME280;62348;51.412;5.436;2022-12-07T11:36:50;101557.09;;;4.92;91.82
73981;BME280;62348;51.412;5.436;2022-12-07T11:41:56;101545.97;;;5.01;91.48
73981;BME280;62348;51.412;5.436;2022-12-07T11:44:34;101543.69;;;5.05;91.41
73981;BME280;62348;51.412;5.436;2022-12-07T11:47:14;101545.13;;;5.07;91.41
73981;BME280;62348;51.412;5.436;2022-12-07T11:50:22;101538.53;;;5.10;90.85
73981;BME280;62348;51.412;5.436;2022-12-07T11:52:54;101545.34;;;5.13;90.99
73981;BME280;62348;51.412;5.436;2022-12-07T12:03:42;101537.09;;;5.21;90.24
73981;BME280;62348;51.412;5.436;2022-12-07T12:06:09;101536.69;;;5.24;89.57
73981;BME280;62348;51.412;5.436;2022-12-07T12:08:47;101538.31;;;5.25;90.24
73981;BME280;62348;51.412;5.436;2022-12-07T12:11:49;101538.91;;;5.27;90.42
73981;BME280;62348;51.412;5.436;2022-12-07T12:20:19;101541.41;;;5.28;89.34
73981;BME280;62348;51.412;5.436;2022-12-07T12:23:00;101534.16;;;5.29;89.42
73981;BME280;62348;51.412;5.436;2022-12-07T12:25:35;101524.69;;;5.26;88.89
73981;BME280;62348;51.412;5.436;2022-12-07T12:28:02;101523.69;;;5.27;88.91
73981;BME280;62348;51.412;5.436;2022-12-07T12:30:32;101517.88;;;5.31;88.54
73981;BME280;62348;51.412;5.436;2022-12-07T12:33:25;101522.84;;;5.34;89.60
73981;BME280;62348;51.412;5.436;2022-12-07T12:46:56;101495.00;;;5.28;88.68
73981;BME280;62348;51.412;5.436;2022-12-07T12:51:58;101494.78;;;5.30;88.60
73981;BME280;62348;51.412;5.436;2022-12-07T12:57:26;101478.06;;;5.34;89.17
73981;BME280;62348;51.412;5.436;2022-12-07T13:02:36;101485.09;;;5.35;88.61
73981;BME280;62348;51.412;5.436;2022-12-07T13:12:59;101474.78;;;5.39;87.79
73981;BME280;62348;51.412;5.436;2022-12-07T13:15:42;101469.16;;;5.40;88.11
73981;BME280;62348;51.412;5.436;2022-12-07T13:23:16;101464.41;;;5.42;88.32
73981;BME280;62348;51.412;5.436;2022-12-07T13:25:54;101456.16;;;5.44;88.95
73981;BME280;62348;51.412;5.436;2022-12-07T13:28:22;101455.34;;;5.43;87.89
73981;BME280;62348;51.412;5.436;2022-12-07T13:31:02;101455.56;;;5.42;87.97
73981;BME280;62348;51.412;5.436;2022-12-07T13:33:30;101447.94;;;5.39;87.88
73981;BME280;62348;51.412;5.436;2022-12-07T13:35:56;101441.34;;;5.35;87.73
73981;BME280;62348;51.412;5.436;2022-12-07T13:38:31;101437.22;;;5.32;87.76
73981;BME280;62348;51.412;5.436;2022-12-07T13:43:29;101445.31;;;5.25;87.90
73981;BME280;62348;51.412;5.436;2022-12-07T13:45:58;101440.56;;;5.21;87.64
73981;BME280;62348;51.412;5.436;2022-12-07T13:48:36;101448.00;;;5.19;88.26
73981;BME280;62348;51.412;5.436;2022-12-07T13:51:17;101442.22;;;5.15;87.92
73981;BME280;62348;51.412;5.436;2022-12-07T13:53:48;101447.19;;;5.12;88.43
73981;BME280;62348;51.412;5.436;2022-12-07T13:56:15;101435.03;;;5.09;88.55
73981;BME280;62348;51.412;5.436;2022-12-07T13:58:41;101444.09;;;5.08;88.07
73981;BME280;62348;51.412;5.436;2022-12-07T14:01:07;101448.63;;;5.07;88.44
73981;BME280;62348;51.412;5.436;2022-12-07T14:03:34;101441.41;;;5.08;88.42
73981;BME280;62348;51.412;5.436;2022-12-07T14:08:47;101435.44;;;5.13;88.78
73981;BME280;62348;51.412;5.436;2022-12-07T14:11:18;101427.81;;;5.16;88.96
73981;BME280;62348;51.412;5.436;2022-12-07T14:13:56;101422.44;;;5.16;88.74
73981;BME280;62348;51.412;5.436;2022-12-07T14:16:30;101417.91;;;5.17;88.57
73981;BME280;62348;51.412;5.436;2022-12-07T14:18:58;101420.78;;;5.15;88.95
73981;BME280;62348;51.412;5.436;2022-12-07T14:21:26;101415.22;;;5.17;88.68
73981;BME280;62348;51.412;5.436;2022-12-07T14:24:17;101411.72;;;5.16;89.13
73981;BME280;62348;51.412;5.436;2022-12-07T14:26:44;101406.56;;;5.15;89.15
73981;BME280;62348;51.412;5.436;2022-12-07T14:29:29;101409.03;;;5.16;89.16
73981;BME280;62348;51.412;5.436;2022-12-07T14:31:57;101410.06;;;5.15;89.13
73981;BME280;62348;51.412;5.436;2022-12-07T14:34:24;101403.06;;;5.14;89.08
73981;BME280;62348;51.412;5.436;2022-12-07T14:36:50;101395.03;;;5.14;88.99
73981;BME280;62348;51.412;5.436;2022-12-07T14:39:15;101403.06;;;5.14;89.25
73981;BME280;62348;51.412;5.436;2022-12-07T14:41:41;101397.69;;;5.14;89.45
73981;BME280;62348;51.412;5.436;2022-12-07T14:44:17;101391.94;;;5.11;89.54
73981;BME280;62348;51.412;5.436;2022-12-07T14:46:42;101384.91;;;5.09;89.48
73981;BME280;62348;51.412;5.436;2022-12-07T14:49:08;101380.59;;;5.08;89.69
73981;BME280;62348;51.412;5.436;2022-12-07T14:51:36;101382.63;;;5.06;89.91
73981;BME280;62348;51.412;5.436;2022-12-07T14:54:04;101381.22;;;5.04;89.91
73981;BME280;62348;51.412;5.436;2022-12-07T14:56:30;101387.63;;;5.03;89.78
73981;BME280;62348;51.412;5.436;2022-12-07T14:58:56;101388.66;;;5.02;89.30
73981;BME280;62348;51.412;5.436;2022-12-07T15:01:21;101391.53;;;5.00;89.08